Time;durP1;ratioP1;P1;durP2;ratioP2;P2;SDS_P1;SDS_P2;PMS_P1;PMS_P2;Temp;Humidity;BMP_temperature;BMP_pressure;BME280_temperature;BME280_humidity;BME280_pressure;Samples;Min_cycle;Max_cycle;Signal;HPM_P1;HPM_P2
2022/11/11 00:01:37;;;;;;;12.50;5.30;;;;;;;11.27;100.00;102503.47;5018678;28;20037;-79
2022/11/11 00:04:24;;;;;;;10.82;5.35;;;;;;;11.26;100.00;102499.03;5017471;28;20048;-77
2022/11/11 00:07:11;;;;;;;16.98;5.85;;;;;;;11.25;100.00;102510.47;4980875;28;20270;-79
2022/11/11 00:09:58;;;;;;;9.90;5.35;;;;;;;11.24;100.00;102518.34;4988256;28;20057;-79
2022/11/11 00:12:45;;;;;;;12.50;5.63;;;;;;;11.23;100.00;102514.81;5003490;28;20041;-79
2022/11/11 00:15:37;;;;;;;16.35;6.65;;;;;;;11.22;100.00;102510.38;5007267;28;20050;-79
2022/11/11 00:27:39;;;;;;;15.00;7.07;;;;;;;11.14;100.00;102514.56;4993744;28;20042;-78
2022/11/11 00:30:25;;;;;;;16.52;6.72;;;;;;;11.12;100.00;102497.78;5003022;28;20042;-78
2022/11/11 00:33:13;;;;;;;11.23;6.32;;;;;;;11.11;100.00;102485.44;4987017;28;20049;-78
2022/11/11 00:36:00;;;;;;;11.65;6.32;;;;;;;11.11;100.00;102489.00;4987207;28;20515;-79
2022/11/11 00:38:48;;;;;;;20.08;6.85;;;;;;;11.10;100.00;102504.78;5006097;28;20056;-78
2022/11/11 00:41:36;;;;;;;13.65;6.47;;;;;;;11.08;100.00;102512.66;5010811;28;20269;-78
2022/11/11 00:44:23;;;;;;;12.57;6.80;;;;;;;11.07;100.00;102517.88;5017600;28;20646;-78
2022/11/11 00:53:30;;;;;;;12.57;7.13;;;;;;;11.05;100.00;102525.72;4989946;28;20337;-78
2022/11/11 00:56:16;;;;;;;11.48;7.40;;;;;;;11.04;100.00;102516.06;5018198;28;20038;-78
2022/11/11 00:59:06;;;;;;;12.77;6.95;;;;;;;11.04;100.00;102516.06;5018818;28;20411;-78
2022/11/11 01:01:53;;;;;;;14.80;7.13;;;;;;;11.03;100.00;102522.16;5017253;28;20041;-78
2022/11/11 01:04:40;;;;;;;16.48;6.90;;;;;;;11.04;100.00;102507.22;5012846;28;20395;-78
2022/11/11 01:07:28;;;;;;;15.90;7.03;;;;;;;11.04;100.00;102510.78;5015306;28;20025;-79
2022/11/11 01:10:36;;;;;;;12.80;6.97;;;;;;;11.03;100.00;102514.25;4980974;28;20053;-78
2022/11/11 01:13:26;;;;;;;17.63;7.07;;;;;;;11.04;100.00;102517.78;5016591;28;20258;-78
2022/11/11 01:16:18;;;;;;;12.05;6.65;;;;;;;11.04;100.00;102507.22;5028863;28;20037;-78
2022/11/11 01:19:06;;;;;;;17.30;7.95;;;;;;;11.04;100.00;102505.50;5029685;28;20037;-78
2022/11/11 01:21:52;;;;;;;12.35;7.75;;;;;;;11.04;100.00;102505.50;5026171;28;20037;-78
2022/11/11 01:24:39;;;;;;;15.52;7.50;;;;;;;11.05;100.00;102507.28;4965759;28;20399;-78
2022/11/11 01:27:26;;;;;;;14.48;7.70;;;;;;;11.04;100.00;102504.59;5008317;28;20037;-78
2022/11/11 01:30:14;;;;;;;16.38;7.85;;;;;;;11.06;100.00;102503.78;5037276;28;20054;-78
2022/11/11 01:33:01;;;;;;;14.65;7.30;;;;;;;11.08;100.00;102495.94;5020419;28;20534;-79
2022/11/11 01:35:49;;;;;;;13.95;7.63;;;;;;;11.10;100.00;102515.31;5023179;28;20045;-79
2022/11/11 01:38:37;;;;;;;12.25;6.82;;;;;;;11.10;100.00;102494.22;4986187;28;20053;-79
2022/11/11 01:41:34;;;;;;;13.25;6.75;;;;;;;11.12;100.00;102492.53;5027372;28;20415;-79
2022/11/11 01:44:45;;;;;;;13.20;7.22;;;;;;;11.15;100.00;102496.97;5018086;28;20045;-78
2022/11/11 01:49:17;;;;;;;13.32;7.13;;;;;;;11.15;100.00;102497.84;5014399;28;20232;-78
2022/11/11 01:51:04;;;;;;;15.30;7.47;;;;;;;11.16;100.00;102491.75;5019076;28;20037;-79
2022/11/11 01:53:59;;;;;;;16.17;7.60;;;;;;;11.17;100.00;102503.19;5020384;28;20049;-79
2022/11/11 01:56:50;;;;;;;11.95;6.97;;;;;;;11.18;100.00;102497.06;5026486;28;20072;-78
2022/11/11 01:59:39;;;;;;;15.88;7.43;;;;;;;11.18;100.00;102497.06;5026905;28;20422;-79
2022/11/11 02:02:38;;;;;;;16.25;7.93;;;;;;;11.19;100.00;102502.38;5015402;28;20054;-79
2022/11/11 02:05:42;;;;;;;16.35;7.55;;;;;;;11.20;100.00;102505.91;5013008;28;20040;-78
2022/11/11 02:08:35;;;;;;;15.43;7.22;;;;;;;11.21;100.00;102507.69;5019971;28;20045;-78
2022/11/11 02:14:41;;;;;;;19.73;7.82;;;;;;;11.20;100.00;102519.09;5015074;28;20042;-78
2022/11/11 02:17:31;;;;;;;12.80;7.07;;;;;;;11.20;100.00;102517.34;5025735;28;20064;-79
2022/11/11 02:20:24;;;;;;;16.75;7.60;;;;;;;11.20;100.00;102522.63;5017288;28;20561;-78
2022/11/11 02:23:25;;;;;;;15.65;7.32;;;;;;;11.20;100.00;102522.63;5026332;28;20037;-79
2022/11/11 02:26:16;;;;;;;19.33;7.80;;;;;;;11.19;100.00;102528.78;5000336;28;20034;-78
2022/11/11 02:29:12;;;;;;;16.73;7.72;;;;;;;11.19;100.00;102523.50;5011285;28;20399;-79
2022/11/11 02:31:59;;;;;;;17.02;7.70;;;;;;;11.19;100.00;102520.88;5023127;28;20044;-79
2022/11/11 02:34:46;;;;;;;12.35;7.07;;;;;;;11.17;100.00;102525.22;5028304;28;20044;-78
2022/11/11 02:37:34;;;;;;;12.93;6.97;;;;;;;11.16;100.00;102526.03;5017475;28;20277;-78
2022/11/11 02:43:46;;;;;;;14.00;7.43;;;;;;;11.14;100.00;102514.56;4986601;28;20038;-79
2022/11/11 02:46:33;;;;;;;18.10;7.53;;;;;;;11.15;100.00;102534.78;5020043;28;20038;-78
2022/11/11 02:49:20;;;;;;;11.60;7.05;;;;;;;11.14;100.00;102527.75;5020167;28;20034;-78
2022/11/11 02:52:08;;;;;;;16.58;7.43;;;;;;;11.13;100.00;102525.94;5016202;28;20034;-79
2022/11/11 02:54:55;;;;;;;12.90;7.82;;;;;;;11.15;100.00;102536.56;5029531;28;20044;-78
2022/11/11 02:57:42;;;;;;;11.60;6.97;;;;;;;11.14;100.00;102548.84;4995657;28;20041;-78
2022/11/11 03:00:29;;;;;;;15.45;7.43;;;;;;;11.15;100.00;102547.09;5003659;28;20499;-79
2022/11/11 03:03:16;;;;;;;13.95;7.95;;;;;;;11.15;100.00;102540.06;5010807;28;20049;-79
2022/11/11 03:06:04;;;;;;;13.70;8.32;;;;;;;11.14;100.00;102545.34;5026641;28;20046;-78
2022/11/11 03:08:51;;;;;;;14.82;8.60;;;;;;;11.14;100.00;102540.06;5019575;28;20377;-76
2022/11/11 03:11:38;;;;;;;12.18;8.35;;;;;;;11.14;100.00;102548.84;5011470;28;20038;-78
2022/11/11 03:14:25;;;;;;;21.40;10.25;;;;;;;11.12;100.00;102545.28;4988352;28;20054;-77
2022/11/11 03:23:24;;;;;;;15.75;8.95;;;;;;;11.11;100.00;102538.19;5013530;28;20037;-78
2022/11/11 03:26:11;;;;;;;19.65;10.88;;;;;;;11.08;100.00;102540.78;5015051;28;20046;-79
2022/11/11 03:28:59;;;;;;;14.70;9.48;;;;;;;11.06;100.00;102547.75;5006685;28;20041;-79
2022/11/11 03:31:49;;;;;;;23.20;12.17;;;;;;;11.03;100.00;102550.28;5004853;28;20042;-79
2022/11/11 03:34:36;;;;;;;17.15;11.02;;;;;;;11.01;100.00;102546.72;5008130;28;20514;-79
2022/11/11 03:40:28;;;;;;;20.60;11.98;;;;;;;10.95;100.00;102541.28;5009051;28;20038;-77
2022/11/11 03:43:17;;;;;;;18.38;12.57;;;;;;;10.92;100.00;102544.69;5014968;28;20045;-77
2022/11/11 03:46:04;;;;;;;20.10;12.70;;;;;;;10.87;100.00;102539.31;4993193;28;20054;-77
2022/11/11 03:48:51;;;;;;;24.20;13.13;;;;;;;10.85;100.00;102546.28;5009073;28;20391;-77
2022/11/11 03:51:38;;;;;;;22.65;13.98;;;;;;;10.82;100.00;102554.09;5022984;28;20049;-78
2022/11/11 03:54:25;;;;;;;21.60;14.52;;;;;;;10.78;100.00;102549.59;5020597;28;20520;-77
2022/11/11 03:57:31;;;;;;;23.52;14.57;;;;;;;10.76;100.00;102551.28;4997061;28;20038;-78
2022/11/11 04:00:24;;;;;;;22.92;13.77;;;;;;;10.73;100.00;102548.53;5016596;28;20191;-79
2022/11/11 04:16:04;;;;;;;24.92;14.75;;;;;;;10.67;100.00;102549.25;5025296;28;20044;-78
2022/11/11 04:21:50;;;;;;;24.25;17.00;;;;;;;10.58;100.00;102540.19;5038958;28;20038;-79
2022/11/11 04:27:42;;;;;;;25.45;15.85;;;;;;;10.58;100.00;102548.09;5028255;28;20056;-78
2022/11/11 04:30:30;;;;;;;21.30;15.77;;;;;;;10.57;100.00;102536.66;4998896;28;20050;-78
2022/11/11 04:33:16;;;;;;;25.27;15.35;;;;;;;10.56;100.00;102548.03;4977070;28;20030;-79
2022/11/11 04:36:04;;;;;;;25.80;15.27;;;;;;;10.56;100.00;102542.75;5025654;28;20045;-79
2022/11/11 04:41:57;;;;;;;22.15;16.65;;;;;;;10.54;100.00;102540.06;5025190;28;20034;-78
2022/11/11 04:48:09;;;;;;;27.73;16.83;;;;;;;10.53;100.00;102547.97;4980436;28;20030;-79
2022/11/11 04:50:56;;;;;;;26.45;16.40;;;;;;;10.53;100.00;102548.84;5026213;28;20054;-78
2022/11/11 04:53:42;;;;;;;29.35;18.60;;;;;;;10.53;100.00;102546.22;5019068;28;20049;-78
2022/11/11 04:56:48;;;;;;;26.63;17.05;;;;;;;10.53;100.00;102546.22;5029403;28;20045;-78
2022/11/11 04:59:36;;;;;;;31.10;17.05;;;;;;;10.56;100.00;102549.78;5030934;28;20499;-79
2022/11/11 05:08:56;;;;;;;30.35;17.50;;;;;;;10.57;100.00;102554.19;5029151;28;20037;-78
2022/11/11 05:11:43;;;;;;;27.75;17.48;;;;;;;10.56;100.00;102553.31;5026294;28;20037;-78
2022/11/11 05:21:19;;;;;;;29.20;16.83;;;;;;;10.55;100.00;102546.28;5020867;28;20337;-78
2022/11/11 05:27:11;;;;;;;29.83;17.95;;;;;;;10.54;100.00;102558.53;5020708;28;20056;-77
2022/11/11 05:29:58;;;;;;;31.13;18.20;;;;;;;10.52;100.00;102565.50;5024126;28;20056;-78
2022/11/11 05:32:45;;;;;;;29.13;17.70;;;;;;;10.53;100.00;102555.88;5024448;28;20386;-76
2022/11/11 05:35:32;;;;;;;24.85;16.95;;;;;;;10.52;100.00;102567.25;5000302;28;20046;-78
2022/11/11 05:38:19;;;;;;;28.08;17.90;;;;;;;10.49;100.00;102578.59;5025733;28;20241;-77
2022/11/11 05:41:07;;;;;;;30.63;19.23;;;;;;;10.49;100.00;102573.34;5014094;28;20037;-78
2022/11/11 05:43:54;;;;;;;29.73;19.05;;;;;;;10.49;100.00;102577.69;5029956;28;20506;-78
2022/11/11 05:46:42;;;;;;;31.23;19.73;;;;;;;10.47;100.00;102584.66;5024688;28;20050;-77
2022/11/11 05:49:32;;;;;;;30.75;20.70;;;;;;;10.47;100.00;102585.56;5022023;28;20053;-77
2022/11/11 05:52:18;;;;;;;30.75;19.60;;;;;;;10.45;100.00;102582.00;4993922;28;20260;-77
2022/11/11 05:55:06;;;;;;;26.05;17.90;;;;;;;10.43;100.00;102575.75;5018339;28;20057;-78
2022/11/11 05:57:53;;;;;;;29.95;18.85;;;;;;;10.44;100.00;102588.09;5000759;28;20049;-77
2022/11/11 06:00:40;;;;;;;28.38;20.35;;;;;;;10.43;100.00;102573.13;5004621;28;20038;-77
2022/11/11 06:03:27;;;;;;;27.70;19.58;;;;;;;10.43;100.00;102582.78;5013082;28;20314;-77
2022/11/11 06:06:14;;;;;;;34.15;20.95;;;;;;;10.43;100.00;102588.94;5005369;28;20041;-78
2022/11/11 06:09:01;;;;;;;26.42;17.90;;;;;;;10.44;100.00;102590.72;5022074;28;20050;-78
2022/11/11 06:11:49;;;;;;;31.45;20.10;;;;;;;10.43;100.00;102583.66;5006899;28;20034;-77
2022/11/11 06:14:36;;;;;;;26.75;18.52;;;;;;;10.43;100.00;102575.75;5016818;28;20054;-77
2022/11/11 06:17:23;;;;;;;29.92;19.15;;;;;;;10.43;100.00;102588.94;5017166;28;20662;-84
2022/11/11 06:20:10;;;;;;;32.22;17.95;;;;;;;10.41;100.00;102580.09;5008400;28;20038;-85
2022/11/11 06:22:57;;;;;;;27.55;18.20;;;;;;;10.39;100.00;102571.25;5006716;28;20037;-85
2022/11/11 06:28:55;;;;;;;28.35;18.48;;;;;;;10.32;100.00;102579.78;5021077;28;20500;-85
2022/11/11 06:31:42;;;;;;;26.75;18.40;;;;;;;10.30;100.00;102592.00;5012616;28;20029;-85
2022/11/11 06:34:29;;;;;;;29.08;18.73;;;;;;;10.29;100.00;102596.38;5013139;28;20038;-85
2022/11/11 06:37:16;;;;;;;26.50;17.50;;;;;;;10.30;100.00;102599.91;5007354;28;20037;-85
2022/11/11 06:40:04;;;;;;;32.13;19.33;;;;;;;10.29;100.00;102606.91;5020598;28;20045;-84
2022/11/11 06:42:51;;;;;;;26.50;18.80;;;;;;;10.30;100.00;102606.13;5023958;28;20278;-84
2022/11/11 06:45:38;;;;;;;27.83;18.00;;;;;;;10.32;100.00;102612.31;5012224;28;20038;-84
2022/11/11 06:48:28;;;;;;;25.65;17.45;;;;;;;10.35;100.00;102611.53;5017991;28;20048;-85
2022/11/11 06:51:15;;;;;;;31.35;17.40;;;;;;;10.38;100.00;102613.34;5011593;28;20049;-85
2022/11/11 06:54:02;;;;;;;28.67;16.98;;;;;;;10.42;100.00;102626.69;5002569;28;20491;-85
2022/11/11 06:56:49;;;;;;;25.67;15.80;;;;;;;10.46;100.00;102625.94;5030175;28;20046;-84
2022/11/11 06:59:36;;;;;;;23.15;16.60;;;;;;;10.50;100.00;102629.56;4992399;28;20060;-85
2022/11/11 07:02:22;;;;;;;24.73;17.60;;;;;;;10.53;100.00;102629.69;5026724;28;20041;-85
2022/11/11 07:05:10;;;;;;;29.55;16.70;;;;;;;10.57;100.00;102634.19;5022223;28;20041;-85
2022/11/11 07:08:02;;;;;;;25.80;17.75;;;;;;;10.59;100.00;102636.88;5031796;28;20036;-84
2022/11/11 07:10:49;;;;;;;28.42;17.67;;;;;;;10.60;100.00;102652.72;4997273;28;20060;-84
2022/11/11 07:13:37;;;;;;;26.95;15.60;;;;;;;10.62;100.00;102663.31;5018642;28;20041;-83
2022/11/11 07:16:24;;;;;;;29.45;17.40;;;;;;;10.66;100.00;102667.84;4985335;28;20042;-84
2022/11/11 07:19:11;;;;;;;23.90;16.30;;;;;;;10.66;100.00;102662.56;5017484;28;20057;-84
2022/11/11 07:21:58;;;;;;;30.33;18.77;;;;;;;10.67;100.00;102685.47;5019166;28;20033;-84
2022/11/11 07:24:45;;;;;;;21.95;17.10;;;;;;;10.67;100.00;102683.72;5005096;28;20049;-85
2022/11/11 07:27:36;;;;;;;27.60;16.58;;;;;;;10.68;100.00;102687.25;5015908;28;20044;-84
2022/11/11 07:30:23;;;;;;;23.63;16.67;;;;;;;10.69;100.00;102691.69;5008945;28;20057;-84
2022/11/11 07:33:09;;;;;;;30.15;16.23;;;;;;;10.69;100.00;102689.06;4989902;28;20049;-84
2022/11/11 07:35:57;;;;;;;29.15;17.60;;;;;;;10.69;100.00;102683.78;5006209;28;20037;-85
2022/11/11 07:38:44;;;;;;;22.58;16.48;;;;;;;10.69;100.00;102687.31;4992116;28;20045;-85
2022/11/11 07:41:31;;;;;;;26.88;18.02;;;;;;;10.71;100.00;102696.16;5024443;28;20045;-84
2022/11/11 07:44:19;;;;;;;25.60;17.02;;;;;;;10.71;100.00;102697.91;5030229;28;20057;-84
2022/11/11 07:47:11;;;;;;;33.85;19.05;;;;;;;10.71;100.00;102700.53;5029998;28;20211;-84
2022/11/11 07:49:58;;;;;;;25.42;18.02;;;;;;;10.73;100.00;102709.38;5020227;28;20048;-84
2022/11/11 07:52:53;;;;;;;26.58;18.02;;;;;;;10.72;100.00;102712.91;5009218;28;20038;-85
2022/11/11 07:55:40;;;;;;;29.50;18.17;;;;;;;10.73;100.00;102722.56;5003588;28;20040;-85
2022/11/11 07:58:27;;;;;;;26.02;18.48;;;;;;;10.73;100.00;102726.09;5017018;28;20045;-84
2022/11/11 08:01:15;;;;;;;27.23;16.85;;;;;;;10.72;100.00;102721.69;5010442;28;20042;-84
2022/11/11 08:04:02;;;;;;;25.67;19.25;;;;;;;10.71;100.00;102727.78;5010032;28;20265;-83
2022/11/11 08:06:49;;;;;;;26.48;18.60;;;;;;;10.73;100.00;102738.41;5011087;28;20047;-84
2022/11/11 08:09:36;;;;;;;26.83;17.63;;;;;;;10.73;100.00;102738.41;5020522;28;20418;-85
2022/11/11 08:15:29;;;;;;;25.05;17.75;;;;;;;10.73;100.00;102738.41;5024515;28;20042;-84
2022/11/11 08:18:17;;;;;;;31.13;16.88;;;;;;;10.73;100.00;102738.41;5005596;28;20037;-84
2022/11/11 08:21:04;;;;;;;28.55;16.95;;;;;;;10.73;100.00;102738.41;5021759;28;20568;-84
2022/11/11 08:23:53;;;;;;;26.33;17.05;;;;;;;10.75;100.00;102739.34;5001446;28;20061;-84
2022/11/11 08:27:00;;;;;;;24.13;16.83;;;;;;;10.74;100.00;102734.94;5005254;28;21600;-83
2022/11/11 08:29:47;;;;;;;27.83;17.23;;;;;;;10.77;100.00;102734.13;5012691;28;20049;-84
2022/11/11 08:32:34;;;;;;;27.17;17.00;;;;;;;10.76;100.00;102741.16;5008503;28;20034;-84
2022/11/11 08:35:21;;;;;;;25.27;17.77;;;;;;;10.76;100.00;102741.16;5023665;28;20060;-84
2022/11/11 08:38:08;;;;;;;24.17;16.35;;;;;;;10.78;100.00;102747.38;5036459;28;20026;-84
2022/11/11 08:40:58;;;;;;;24.48;15.10;;;;;;;10.77;100.00;102734.13;5023342;28;20313;-84
2022/11/11 08:43:45;;;;;;;30.25;18.40;;;;;;;10.78;100.00;102744.72;4982313;28;20411;-85
2022/11/11 08:46:33;;;;;;;25.80;17.20;;;;;;;10.80;100.00;102744.78;5027073;28;20037;-84
2022/11/11 08:49:20;;;;;;;24.25;16.15;;;;;;;10.80;100.00;102748.31;5027899;28;20041;-84
2022/11/11 08:52:14;;;;;;;28.50;16.33;;;;;;;10.82;100.00;102757.16;5021849;28;20407;-84
2022/11/11 08:55:01;;;;;;;26.83;17.00;;;;;;;10.82;100.00;102751.88;5032636;28;20057;-84
2022/11/11 08:57:58;;;;;;;31.33;17.05;;;;;;;10.82;100.00;102757.16;4998756;28;20049;-84
2022/11/11 09:00:45;;;;;;;29.65;16.10;;;;;;;10.83;100.00;102758.97;5024794;28;20040;-84
2022/11/11 09:03:32;;;;;;;22.23;16.95;;;;;;;10.83;100.00;102765.97;5026181;28;20048;-84
2022/11/11 09:06:19;;;;;;;26.45;15.80;;;;;;;10.83;100.00;102771.22;5019895;28;20037;-83
2022/11/11 09:09:10;;;;;;;22.85;15.93;;;;;;;10.84;100.00;102765.13;5017459;28;20065;-84
2022/11/11 09:11:57;;;;;;;28.38;16.20;;;;;;;10.85;100.00;102762.56;5015127;28;20072;-84
2022/11/11 09:14:44;;;;;;;24.00;15.90;;;;;;;10.84;100.00;102773.03;4993232;28;20531;-84
2022/11/11 09:17:31;;;;;;;27.88;15.80;;;;;;;10.85;100.00;102762.56;5044737;28;20037;-85
2022/11/11 09:20:18;;;;;;;25.98;16.67;;;;;;;10.86;100.00;102779.25;5021256;28;20041;-84
2022/11/11 09:23:10;;;;;;;21.60;15.55;;;;;;;10.87;100.00;102781.06;5028958;28;20060;-84
2022/11/11 09:26:02;;;;;;;26.65;16.35;;;;;;;10.87;100.00;102781.94;4997123;28;20042;-84
2022/11/11 09:28:49;;;;;;;24.65;16.40;;;;;;;10.89;100.00;102800.47;5020514;28;20054;-84
2022/11/11 09:31:36;;;;;;;22.35;14.55;;;;;;;10.88;100.00;102798.66;5022316;28;20053;-85
2022/11/11 09:34:30;;;;;;;23.85;15.40;;;;;;;10.90;100.00;102797.84;5021309;28;20412;-84
2022/11/11 09:37:17;;;;;;;26.20;15.45;;;;;;;10.93;100.00;102802.38;5032156;28;20041;-84
2022/11/11 09:40:05;;;;;;;25.25;15.57;;;;;;;10.95;100.00;102802.41;5019473;28;20053;-83
2022/11/11 09:43:13;;;;;;;26.33;14.50;;;;;;;10.94;100.00;102809.41;5016691;28;20058;-84
2022/11/11 09:46:08;;;;;;;21.58;14.20;;;;;;;10.96;100.00;102817.38;5007221;28;20045;-84
2022/11/11 09:49:19;;;;;;;22.92;14.18;;;;;;;10.99;100.00;102822.78;5013080;28;20046;-83
2022/11/11 09:52:13;;;;;;;22.55;14.57;;;;;;;11.00;100.00;102816.63;5023038;28;20049;-84
2022/11/11 09:55:03;;;;;;;20.23;14.73;;;;;;;11.01;100.00;102823.72;5013894;28;20041;-84
2022/11/11 09:57:57;;;;;;;23.02;14.88;;;;;;;11.03;100.00;102824.66;5032319;28;20313;-83
2022/11/11 10:00:53;;;;;;;24.45;14.05;;;;;;;11.02;100.00;102822.84;4989859;28;20053;-83
2022/11/11 10:03:48;;;;;;;21.52;14.50;;;;;;;11.02;100.00;102829.06;5018958;28;20048;-84
2022/11/11 10:06:35;;;;;;;22.13;13.95;;;;;;;10.99;100.00;102828.06;5008051;28;20049;-84
2022/11/11 10:09:33;;;;;;;17.85;12.98;;;;;;;10.98;100.00;102836.78;5012015;28;20044;-84
2022/11/11 10:12:26;;;;;;;18.75;14.02;;;;;;;10.94;100.00;102838.44;5018869;28;20049;-85
2022/11/11 10:15:15;;;;;;;19.75;13.30;;;;;;;10.92;100.00;102833.09;5023237;28;20042;-83
2022/11/11 10:18:21;;;;;;;20.23;12.65;;;;;;;10.95;100.00;102837.59;5008936;28;20042;-83
2022/11/11 10:21:24;;;;;;;19.75;12.80;;;;;;;10.92;100.00;102830.47;5027515;28;20018;-83
2022/11/11 10:24:16;;;;;;;18.75;13.35;;;;;;;10.92;100.00;102832.22;5026446;28;20030;-83
2022/11/11 10:27:14;;;;;;;20.40;14.00;;;;;;;10.92;100.00;102833.09;5024117;28;20046;-84
2022/11/11 10:30:17;;;;;;;19.80;12.63;;;;;;;10.92;100.00;102832.22;5017590;28;20046;-84
2022/11/11 10:33:21;;;;;;;15.38;11.73;;;;;;;10.92;100.00;102827.81;5003736;28;20049;-85
2022/11/11 10:36:16;;;;;;;18.42;13.10;;;;;;;10.93;100.00;102839.28;5019262;28;20037;-84
2022/11/11 10:39:05;;;;;;;16.67;11.93;;;;;;;10.91;100.00;102828.69;5024959;28;20068;-84
2022/11/11 10:41:52;;;;;;;16.90;12.23;;;;;;;10.91;100.00;102836.59;5023273;28;20061;-84
2022/11/11 10:44:41;;;;;;;17.42;12.80;;;;;;;10.91;100.00;102833.06;5010491;28;20041;-84
2022/11/11 10:47:52;;;;;;;19.90;12.80;;;;;;;10.90;100.00;102826.88;5003107;28;20049;-84
2022/11/11 10:50:49;;;;;;;18.48;12.75;;;;;;;10.87;100.00;102828.53;5017312;28;20060;-84
2022/11/11 10:54:02;;;;;;;18.10;13.98;;;;;;;10.85;100.00;102833.75;5024635;28;20158;-83
2022/11/11 10:57:00;;;;;;;17.45;12.48;;;;;;;10.84;100.00;102833.69;5019993;28;20064;-83
2022/11/11 10:59:52;;;;;;;16.67;12.63;;;;;;;10.82;100.00;102831.00;5027759;28;20052;-83
2022/11/11 11:02:44;;;;;;;17.90;12.98;;;;;;;10.83;100.00;102831.91;5005525;28;21907;-83
2022/11/11 11:05:41;;;;;;;18.80;12.73;;;;;;;10.84;100.00;102828.44;5010560;28;20258;-83
2022/11/11 11:08:33;;;;;;;18.25;13.32;;;;;;;10.86;100.00;102824.09;5021051;28;20437;-83
2022/11/11 11:11:36;;;;;;;17.90;13.48;;;;;;;10.84;100.00;102812.59;5007486;28;20518;-83
2022/11/11 11:14:35;;;;;;;19.48;13.60;;;;;;;10.87;100.00;102821.53;5024607;28;20049;-83
2022/11/11 11:17:30;;;;;;;18.58;13.82;;;;;;;10.89;100.00;102819.81;5011713;28;20052;-83
2022/11/11 11:20:19;;;;;;;20.80;13.35;;;;;;;10.90;100.00;102818.97;5024862;28;20060;-83
2022/11/11 11:23:06;;;;;;;16.10;12.63;;;;;;;10.92;100.00;102822.53;5020607;28;20037;-83
2022/11/11 11:25:56;;;;;;;17.20;13.35;;;;;;;10.93;100.00;102821.72;4999116;28;20046;-83
2022/11/11 11:29:05;;;;;;;16.35;13.30;;;;;;;10.93;100.00;102818.19;5017041;28;20038;-83
2022/11/11 11:31:51;;;;;;;19.60;13.50;;;;;;;10.93;100.00;102816.44;5009799;28;20062;-83
2022/11/11 11:34:45;;;;;;;22.25;13.75;;;;;;;10.98;100.00;102820.97;4989183;28;20240;-83
2022/11/11 11:37:31;;;;;;;19.38;12.98;;;;;;;10.98;100.00;102827.13;5012457;28;20046;-84
2022/11/11 11:40:18;;;;;;;16.10;12.70;;;;;;;11.00;100.00;102829.81;4998804;28;20499;-84
2022/11/11 11:43:30;;;;;;;16.58;12.43;;;;;;;11.03;100.00;102827.31;5017172;28;20064;-84
2022/11/11 11:46:37;;;;;;;22.27;13.93;;;;;;;11.07;100.00;102827.44;5018195;28;20046;-84
2022/11/11 11:49:33;;;;;;;15.57;12.00;;;;;;;11.11;100.00;102831.06;5017959;28;20049;-84
2022/11/11 11:52:41;;;;;;;17.55;13.07;;;;;;;11.13;100.00;102837.28;5003082;28;20048;-85
2022/11/11 11:55:38;;;;;;;18.40;14.48;;;;;;;11.14;100.00;102838.22;5008768;28;20038;-84
2022/11/11 11:58:38;;;;;;;16.60;13.68;;;;;;;11.17;100.00;102839.22;4993029;28;20050;-85
2022/11/11 12:01:53;;;;;;;16.42;13.68;;;;;;;11.18;100.00;102843.63;5017667;28;20034;-84
2022/11/11 12:05:09;;;;;;;20.80;13.82;;;;;;;11.19;100.00;102849.78;5014488;28;20042;-85
2022/11/11 12:08:09;;;;;;;17.40;13.30;;;;;;;11.21;100.00;102859.56;4991691;28;20068;-84
2022/11/11 12:11:10;;;;;;;18.73;14.00;;;;;;;11.22;100.00;102857.81;5022650;28;20064;-83
2022/11/11 12:14:05;;;;;;;17.27;13.77;;;;;;;11.25;100.00;102858.81;5002690;28;20056;-85
2022/11/11 12:17:00;;;;;;;17.83;13.15;;;;;;;11.24;100.00;102854.38;5008991;28;20057;-84
2022/11/11 12:19:58;;;;;;;17.20;13.77;;;;;;;11.24;100.00;102864.94;5020023;28;20060;-83
2022/11/11 12:23:37;;;;;;;16.55;13.27;;;;;;;11.25;100.00;102864.09;4994343;28;20495;-80
2022/11/11 12:27:15;;;;;;;17.75;13.25;;;;;;;11.24;100.00;102856.13;5015622;28;20060;-83
2022/11/11 12:30:09;;;;;;;15.57;12.73;;;;;;;11.18;100.00;102859.47;5028778;28;20053;-85
2022/11/11 12:32:59;;;;;;;17.23;13.73;;;;;;;11.19;100.00;102861.28;5021088;28;20511;-84
2022/11/11 12:36:06;;;;;;;17.10;13.38;;;;;;;11.20;100.00;102868.31;5009557;28;20058;-84
2022/11/11 12:39:05;;;;;;;19.40;13.13;;;;;;;11.21;100.00;102866.56;5011715;28;20055;-82
2022/11/11 12:42:00;;;;;;;18.73;12.82;;;;;;;11.20;100.00;102870.97;5018308;28;20045;-84
2022/11/11 12:45:16;;;;;;;19.92;13.88;;;;;;;11.15;100.00;102867.25;5014720;28;20379;-84
2022/11/11 12:48:35;;;;;;;18.08;13.85;;;;;;;11.11;100.00;102868.94;5014330;28;20045;-86
2022/11/11 12:51:44;;;;;;;15.48;12.85;;;;;;;11.09;100.00;102867.06;5037274;28;20475;-83
2022/11/11 12:54:54;;;;;;;18.92;13.65;;;;;;;11.08;100.00;102865.28;5004168;28;20139;-84
2022/11/11 12:58:04;;;;;;;18.13;12.85;;;;;;;11.04;100.00;102868.66;5019529;28;20040;-84
2022/11/11 13:01:09;;;;;;;18.55;14.55;;;;;;;11.04;100.00;102868.66;5029900;28;20083;-81
2022/11/11 13:04:33;;;;;;;18.30;13.55;;;;;;;11.04;100.00;102882.75;5025753;28;20045;-79
2022/11/11 13:07:39;;;;;;;20.55;12.60;;;;;;;11.02;100.00;102884.44;5014934;28;20041;-80
2022/11/11 13:10:50;;;;;;;16.42;13.23;;;;;;;11.00;100.00;102872.03;4993820;28;20038;-80
2022/11/11 13:14:07;;;;;;;16.92;13.25;;;;;;;10.99;100.00;102875.53;5021346;28;20056;-80
2022/11/11 13:16:57;;;;;;;17.67;14.10;;;;;;;10.98;100.00;102874.63;5023249;28;20034;-79
2022/11/11 13:19:59;;;;;;;21.25;13.75;;;;;;;11.00;100.00;102887.84;5031682;28;20041;-80
2022/11/11 13:22:49;;;;;;;18.02;13.25;;;;;;;11.02;100.00;102889.72;5018965;28;20154;-81
2022/11/11 13:25:40;;;;;;;16.98;12.73;;;;;;;11.04;100.00;102897.66;5005875;28;20048;-80
2022/11/11 13:28:34;;;;;;;23.88;12.93;;;;;;;11.03;100.00;102890.63;5025388;28;20538;-80
2022/11/11 13:31:33;;;;;;;19.42;13.98;;;;;;;11.03;100.00;102898.53;5015561;28;20041;-81
2022/11/11 13:34:21;;;;;;;17.88;13.07;;;;;;;10.99;100.00;102891.34;5013771;28;20415;-80
2022/11/11 13:37:21;;;;;;;20.27;12.85;;;;;;;10.96;100.00;102896.53;5025736;28;20018;-80
2022/11/11 13:40:22;;;;;;;18.00;13.45;;;;;;;10.97;100.00;102903.59;5013301;28;20049;-80
2022/11/11 13:44:00;;;;;;;19.33;13.40;;;;;;;10.98;100.00;102905.38;5017647;28;20046;-81
2022/11/11 13:46:48;;;;;;;16.33;12.38;;;;;;;10.97;100.00;102898.34;4980559;28;20424;-80
2022/11/11 13:49:51;;;;;;;15.15;12.32;;;;;;;10.98;100.00;102905.38;4972554;28;20050;-80
2022/11/11 13:52:52;;;;;;;17.27;12.60;;;;;;;10.96;100.00;102902.69;4977479;28;20512;-81
2022/11/11 13:55:46;;;;;;;19.30;12.77;;;;;;;10.95;100.00;102905.28;4969640;28;20038;-80
2022/11/11 13:58:36;;;;;;;15.05;11.95;;;;;;;10.95;100.00;102918.50;4988482;28;20049;-80
2022/11/11 14:01:23;;;;;;;15.63;13.23;;;;;;;10.91;100.00;102915.72;4980225;28;20039;-81
2022/11/11 14:04:10;;;;;;;20.20;13.95;;;;;;;10.91;100.00;102915.72;5007178;28;20500;-81
2022/11/11 14:07:00;;;;;;;22.65;14.60;;;;;;;10.90;100.00;102907.75;4986455;28;20046;-80
2022/11/11 14:09:59;;;;;;;16.67;13.10;;;;;;;10.88;100.00;102918.25;4982124;28;20043;-80
2022/11/11 14:12:51;;;;;;;19.80;13.90;;;;;;;10.84;100.00;102932.19;4975547;28;20039;-79
2022/11/11 14:15:40;;;;;;;20.73;14.85;;;;;;;10.83;100.00;102927.75;4984342;28;20053;-82
2022/11/11 14:18:39;;;;;;;22.65;15.52;;;;;;;10.80;100.00;102921.47;4977337;28;20054;-79